sensor_id;sensor_type;location;lat;lon;timestamp;temperature;humidity
1468;DHT22;727;48.892;9.544;2023-08-21T00:02:23;22.30;99.90
1468;DHT22;727;48.892;9.544;2023-08-21T00:04:53;22.30;99.90
1468;DHT22;727;48.892;9.544;2023-08-21T00:07:20;22.30;99.90
1468;DHT22;727;48.892;9.544;2023-08-21T00:09:47;22.30;99.90
1468;DHT22;727;48.892;9.544;2023-08-21T00:12:13;22.30;99.90
1468;DHT22;727;48.892;9.544;2023-08-21T00:14:42;22.20;99.90
1468;DHT22;727;48.892;9.544;2023-08-21T00:17:09;22.20;99.90
1468;DHT22;727;48.892;9.544;2023-08-21T00:19:35;22.20;99.90
1468;DHT22;727;48.892;9.544;2023-08-21T00:22:02;22.10;99.90
1468;DHT22;727;48.892;9.544;2023-08-21T00:24:29;22.10;99.90
1468;DHT22;727;48.892;9.544;2023-08-21T00:26:56;22.10;99.90
1468;DHT22;727;48.892;9.544;2023-08-21T00:29:22;22.10;99.90
1468;DHT22;727;48.892;9.544;2023-08-21T00:31:50;22.10;99.90
1468;DHT22;727;48.892;9.544;2023-08-21T00:34:17;22.10;99.90
1468;DHT22;727;48.892;9.544;2023-08-21T00:36:44;22.10;99.90
1468;DHT22;727;48.892;9.544;2023-08-21T00:39:11;22.10;99.90
1468;DHT22;727;48.892;9.544;2023-08-21T00:41:38;22.00;99.90
1468;DHT22;727;48.892;9.544;2023-08-21T00:44:05;22.00;99.90
1468;DHT22;727;48.892;9.544;2023-08-21T00:46:32;22.00;99.90
1468;DHT22;727;48.892;9.544;2023-08-21T00:49:01;22.00;99.90
1468;DHT22;727;48.892;9.544;2023-08-21T00:51:28;22.00;99.90
1468;DHT22;727;48.892;9.544;2023-08-21T00:53:55;22.00;99.90
1468;DHT22;727;48.892;9.544;2023-08-21T00:56:22;21.90;99.90
1468;DHT22;727;48.892;9.544;2023-08-21T00:58:49;21.90;99.90
1468;DHT22;727;48.892;9.544;2023-08-21T01:01:18;21.80;99.90
1468;DHT22;727;48.892;9.544;2023-08-21T01:03:45;21.80;99.90
1468;DHT22;727;48.892;9.544;2023-08-21T01:06:13;21.80;99.90
1468;DHT22;727;48.892;9.544;2023-08-21T01:08:45;21.70;99.90
1468;DHT22;727;48.892;9.544;2023-08-21T01:11:18;21.70;99.90
1468;DHT22;727;48.892;9.544;2023-08-21T01:13:57;21.70;99.90
1468;DHT22;727;48.892;9.544;2023-08-21T01:16:26;21.60;99.90
1468;DHT22;727;48.892;9.544;2023-08-21T01:18:54;21.50;99.90
1468;DHT22;727;48.892;9.544;2023-08-21T01:21:24;21.50;99.90
1468;DHT22;727;48.892;9.544;2023-08-21T01:23:52;21.50;99.90
1468;DHT22;727;48.892;9.544;2023-08-21T01:26:19;21.40;99.90
1468;DHT22;727;48.892;9.544;2023-08-21T01:28:46;21.40;99.90
1468;DHT22;727;48.892;9.544;2023-08-21T01:31:17;21.40;99.90
1468;DHT22;727;48.892;9.544;2023-08-21T01:33:47;21.40;99.90
1468;DHT22;727;48.892;9.544;2023-08-21T01:36:15;21.40;99.90
1468;DHT22;727;48.892;9.544;2023-08-21T01:38:42;21.40;99.90
1468;DHT22;727;48.892;9.544;2023-08-21T01:41:11;21.40;99.90
1468;DHT22;727;48.892;9.544;2023-08-21T01:43:37;21.30;99.90
1468;DHT22;727;48.892;9.544;2023-08-21T01:46:04;21.30;99.90
1468;DHT22;727;48.892;9.544;2023-08-21T01:48:31;21.30;99.90
1468;DHT22;727;48.892;9.544;2023-08-21T01:51:00;21.30;99.90
1468;DHT22;727;48.892;9.544;2023-08-21T01:53:26;21.20;99.90
1468;DHT22;727;48.892;9.544;2023-08-21T01:55:53;21.20;99.90
1468;DHT22;727;48.892;9.544;2023-08-21T01:58:21;21.20;99.90
1468;DHT22;727;48.892;9.544;2023-08-21T02:00:48;21.10;99.90
1468;DHT22;727;48.892;9.544;2023-08-21T02:03:15;21.10;99.90
1468;DHT22;727;48.892;9.544;2023-08-21T02:05:41;21.10;99.90
1468;DHT22;727;48.892;9.544;2023-08-21T02:08:11;21.10;99.90
1468;DHT22;727;48.892;9.544;2023-08-21T02:10:47;21.10;99.90
1468;DHT22;727;48.892;9.544;2023-08-21T02:13:13;21.10;99.90
1468;DHT22;727;48.892;9.544;2023-08-21T02:15:42;21.10;99.90
1468;DHT22;727;48.892;9.544;2023-08-21T02:18:08;21.00;99.90
1468;DHT22;727;48.892;9.544;2023-08-21T02:20:35;21.00;99.90
1468;DHT22;727;48.892;9.544;2023-08-21T02:23:02;21.00;99.90
1468;DHT22;727;48.892;9.544;2023-08-21T02:25:29;20.90;99.90
1468;DHT22;727;48.892;9.544;2023-08-21T02:27:56;20.90;99.90
1468;DHT22;727;48.892;9.544;2023-08-21T02:30:23;20.90;99.90
1468;DHT22;727;48.892;9.544;2023-08-21T02:32:52;20.90;99.90
1468;DHT22;727;48.892;9.544;2023-08-21T02:35:19;20.90;99.90
1468;DHT22;727;48.892;9.544;2023-08-21T02:37:46;20.90;99.90
1468;DHT22;727;48.892;9.544;2023-08-21T02:40:13;20.80;99.90
1468;DHT22;727;48.892;9.544;2023-08-21T02:42:39;20.80;99.90
1468;DHT22;727;48.892;9.544;2023-08-21T02:45:07;20.70;99.90
1468;DHT22;727;48.892;9.544;2023-08-21T02:47:35;20.70;99.90
1468;DHT22;727;48.892;9.544;2023-08-21T02:50:04;20.70;99.90
1468;DHT22;727;48.892;9.544;2023-08-21T02:52:31;20.70;99.90
1468;DHT22;727;48.892;9.544;2023-08-21T02:54:58;20.60;99.90
1468;DHT22;727;48.892;9.544;2023-08-21T02:57:26;20.70;99.90
1468;DHT22;727;48.892;9.544;2023-08-21T02:59:53;20.60;99.90
1468;DHT22;727;48.892;9.544;2023-08-21T03:02:20;20.70;99.90
1468;DHT22;727;48.892;9.544;2023-08-21T03:04:47;20.60;99.90
1468;DHT22;727;48.892;9.544;2023-08-21T03:07:15;20.60;99.90
1468;DHT22;727;48.892;9.544;2023-08-21T03:09:45;20.50;99.90
1468;DHT22;727;48.892;9.544;2023-08-21T03:12:12;20.50;99.90
1468;DHT22;727;48.892;9.544;2023-08-21T03:14:39;20.50;99.90
1468;DHT22;727;48.892;9.544;2023-08-21T03:17:06;20.50;99.90
1468;DHT22;727;48.892;9.544;2023-08-21T03:19:33;20.50;99.90
1468;DHT22;727;48.892;9.544;2023-08-21T03:22:00;20.40;99.90
1468;DHT22;727;48.892;9.544;2023-08-21T03:24:28;20.50;99.90
1468;DHT22;727;48.892;9.544;2023-08-21T03:26:55;20.40;99.90
1468;DHT22;727;48.892;9.544;2023-08-21T03:29:21;20.40;99.90
1468;DHT22;727;48.892;9.544;2023-08-21T03:31:49;20.40;99.90
1468;DHT22;727;48.892;9.544;2023-08-21T03:34:15;20.30;99.90
1468;DHT22;727;48.892;9.544;2023-08-21T03:36:42;20.40;99.90
1468;DHT22;727;48.892;9.544;2023-08-21T03:39:09;20.30;99.90
1468;DHT22;727;48.892;9.544;2023-08-21T03:41:37;20.30;99.90
1468;DHT22;727;48.892;9.544;2023-08-21T03:44:04;20.30;99.90
1468;DHT22;727;48.892;9.544;2023-08-21T03:46:31;20.30;99.90
1468;DHT22;727;48.892;9.544;2023-08-21T03:48:58;20.30;99.90
1468;DHT22;727;48.892;9.544;2023-08-21T03:51:25;20.30;99.90
1468;DHT22;727;48.892;9.544;2023-08-21T03:53:51;20.20;99.90
1468;DHT22;727;48.892;9.544;2023-08-21T03:56:18;20.20;99.90
1468;DHT22;727;48.892;9.544;2023-08-21T03:58:46;20.20;99.90
1468;DHT22;727;48.892;9.544;2023-08-21T04:01:13;20.20;99.90
1468;DHT22;727;48.892;9.544;2023-08-21T04:03:41;20.20;99.90
1468;DHT22;727;48.892;9.544;2023-08-21T04:06:08;20.20;99.90
1468;DHT22;727;48.892;9.544;2023-08-21T04:08:34;20.10;99.90
1468;DHT22;727;48.892;9.544;2023-08-21T04:11:01;20.10;99.90
1468;DHT22;727;48.892;9.544;2023-08-21T04:13:28;20.10;99.90
1468;DHT22;727;48.892;9.544;2023-08-21T04:15:56;20.10;99.90
1468;DHT22;727;48.892;9.544;2023-08-21T04:18:23;20.10;99.90
1468;DHT22;727;48.892;9.544;2023-08-21T04:20:50;20.10;99.90
1468;DHT22;727;48.892;9.544;2023-08-21T04:23:17;20.10;99.90
1468;DHT22;727;48.892;9.544;2023-08-21T04:25:43;20.20;99.90
1468;DHT22;727;48.892;9.544;2023-08-21T04:28:10;20.20;99.90
1468;DHT22;727;48.892;9.544;2023-08-21T04:30:39;20.10;99.90
1468;DHT22;727;48.892;9.544;2023-08-21T04:33:08;20.20;99.90
1468;DHT22;727;48.892;9.544;2023-08-21T04:35:37;20.10;99.90
1468;DHT22;727;48.892;9.544;2023-08-21T04:38:04;20.20;99.90
1468;DHT22;727;48.892;9.544;2023-08-21T04:40:31;20.20;99.90
1468;DHT22;727;48.892;9.544;2023-08-21T04:42:58;20.20;99.90
1468;DHT22;727;48.892;9.544;2023-08-21T04:45:24;20.20;99.90
1468;DHT22;727;48.892;9.544;2023-08-21T04:47:51;20.20;99.90
1468;DHT22;727;48.892;9.544;2023-08-21T04:50:19;20.30;99.90
1468;DHT22;727;48.892;9.544;2023-08-21T04:52:46;20.30;99.90
1468;DHT22;727;48.892;9.544;2023-08-21T04:55:14;20.50;99.90
1468;DHT22;727;48.892;9.544;2023-08-21T04:57:41;20.90;99.90
1468;DHT22;727;48.892;9.544;2023-08-21T05:00:09;21.40;99.90
1468;DHT22;727;48.892;9.544;2023-08-21T05:02:36;21.90;99.90
1468;DHT22;727;48.892;9.544;2023-08-21T05:05:04;22.50;99.90
1468;DHT22;727;48.892;9.544;2023-08-21T05:07:34;23.10;99.90
1468;DHT22;727;48.892;9.544;2023-08-21T05:10:01;23.60;99.90
1468;DHT22;727;48.892;9.544;2023-08-21T05:12:28;24.00;99.90
1468;DHT22;727;48.892;9.544;2023-08-21T05:14:56;24.10;99.90
1468;DHT22;727;48.892;9.544;2023-08-21T05:17:24;24.00;99.90
1468;DHT22;727;48.892;9.544;2023-08-21T05:19:52;24.40;99.90
1468;DHT22;727;48.892;9.544;2023-08-21T05:22:19;25.10;99.90
1468;DHT22;727;48.892;9.544;2023-08-21T05:24:47;25.60;99.90
1468;DHT22;727;48.892;9.544;2023-08-21T05:27:14;26.30;99.90
1468;DHT22;727;48.892;9.544;2023-08-21T05:29:41;26.80;99.90
1468;DHT22;727;48.892;9.544;2023-08-21T05:32:08;27.50;99.90
1468;DHT22;727;48.892;9.544;2023-08-21T05:34:35;27.80;99.90
1468;DHT22;727;48.892;9.544;2023-08-21T05:37:02;28.30;99.20
1468;DHT22;727;48.892;9.544;2023-08-21T05:39:29;28.60;98.00
1468;DHT22;727;48.892;9.544;2023-08-21T05:41:57;28.90;97.80
1468;DHT22;727;48.892;9.544;2023-08-21T05:44:24;29.40;96.30
1468;DHT22;727;48.892;9.544;2023-08-21T05:46:51;29.50;95.10
1468;DHT22;727;48.892;9.544;2023-08-21T05:49:18;30.00;94.50
1468;DHT22;727;48.892;9.544;2023-08-21T05:51:44;30.40;93.70
1468;DHT22;727;48.892;9.544;2023-08-21T05:54:11;30.40;93.00
1468;DHT22;727;48.892;9.544;2023-08-21T05:56:38;30.70;92.90
1468;DHT22;727;48.892;9.544;2023-08-21T05:59:10;31.00;91.80
1468;DHT22;727;48.892;9.544;2023-08-21T06:01:39;31.40;91.40
1468;DHT22;727;48.892;9.544;2023-08-21T06:04:07;31.60;90.40
1468;DHT22;727;48.892;9.544;2023-08-21T06:06:34;31.30;90.90
1468;DHT22;727;48.892;9.544;2023-08-21T06:09:01;31.20;91.10
1468;DHT22;727;48.892;9.544;2023-08-21T06:11:28;31.30;90.60
1468;DHT22;727;48.892;9.544;2023-08-21T06:13:55;31.60;90.40
1468;DHT22;727;48.892;9.544;2023-08-21T06:16:23;32.10;89.30
1468;DHT22;727;48.892;9.544;2023-08-21T06:18:50;31.90;89.50
1468;DHT22;727;48.892;9.544;2023-08-21T06:21:16;31.70;90.00
1468;DHT22;727;48.892;9.544;2023-08-21T06:23:43;31.70;90.40
1468;DHT22;727;48.892;9.544;2023-08-21T06:26:10;31.60;90.30
1468;DHT22;727;48.892;9.544;2023-08-21T06:28:37;31.40;90.40
1468;DHT22;727;48.892;9.544;2023-08-21T06:31:03;31.30;90.90
1468;DHT22;727;48.892;9.544;2023-08-21T06:33:35;30.60;91.50
1468;DHT22;727;48.892;9.544;2023-08-21T06:36:03;30.00;92.60
1468;DHT22;727;48.892;9.544;2023-08-21T06:38:32;29.60;93.20
1468;DHT22;727;48.892;9.544;2023-08-21T06:41:04;29.20;93.60
1468;DHT22;727;48.892;9.544;2023-08-21T06:46:26;28.40;95.80
1468;DHT22;727;48.892;9.544;2023-08-21T06:48:54;28.20;96.40
1468;DHT22;727;48.892;9.544;2023-08-21T06:51:21;28.10;96.80
1468;DHT22;727;48.892;9.544;2023-08-21T06:53:48;28.10;97.00
1468;DHT22;727;48.892;9.544;2023-08-21T06:56:15;28.00;97.50
1468;DHT22;727;48.892;9.544;2023-08-21T06:58:42;27.80;97.90
1468;DHT22;727;48.892;9.544;2023-08-21T07:01:08;28.00;97.70
1468;DHT22;727;48.892;9.544;2023-08-21T07:03:35;27.80;98.20
1468;DHT22;727;48.892;9.544;2023-08-21T07:06:03;27.90;98.60
1468;DHT22;727;48.892;9.544;2023-08-21T07:08:30;28.10;98.20
1468;DHT22;727;48.892;9.544;2023-08-21T07:10:57;28.00;98.50
1468;DHT22;727;48.892;9.544;2023-08-21T07:13:24;28.10;98.80
1468;DHT22;727;48.892;9.544;2023-08-21T07:15:52;28.30;98.50
1468;DHT22;727;48.892;9.544;2023-08-21T07:18:20;28.40;98.70
1468;DHT22;727;48.892;9.544;2023-08-21T07:20:47;28.60;98.00
1468;DHT22;727;48.892;9.544;2023-08-21T07:23:17;28.60;97.70
1468;DHT22;727;48.892;9.544;2023-08-21T07:25:44;28.60;97.90
1468;DHT22;727;48.892;9.544;2023-08-21T07:28:11;28.70;97.90
1468;DHT22;727;48.892;9.544;2023-08-21T07:30:38;28.80;97.90
1468;DHT22;727;48.892;9.544;2023-08-21T07:33:05;28.90;98.00
1468;DHT22;727;48.892;9.544;2023-08-21T07:35:32;29.00;97.80
1468;DHT22;727;48.892;9.544;2023-08-21T07:37:59;29.00;97.70
1468;DHT22;727;48.892;9.544;2023-08-21T07:40:27;29.00;97.90
1468;DHT22;727;48.892;9.544;2023-08-21T07:42:54;29.20;97.50
1468;DHT22;727;48.892;9.544;2023-08-21T07:45:21;29.40;97.20
1468;DHT22;727;48.892;9.544;2023-08-21T07:47:48;29.60;97.10
1468;DHT22;727;48.892;9.544;2023-08-21T07:50:14;29.70;96.60
1468;DHT22;727;48.892;9.544;2023-08-21T07:52:42;30.00;95.70
1468;DHT22;727;48.892;9.544;2023-08-21T07:55:09;30.10;95.70
1468;DHT22;727;48.892;9.544;2023-08-21T07:57:37;30.40;95.70
1468;DHT22;727;48.892;9.544;2023-08-21T08:00:05;30.60;95.50
1468;DHT22;727;48.892;9.544;2023-08-21T08:02:34;30.80;93.90
1468;DHT22;727;48.892;9.544;2023-08-21T08:05:01;30.70;94.30
1468;DHT22;727;48.892;9.544;2023-08-21T08:07:28;30.80;94.70
1468;DHT22;727;48.892;9.544;2023-08-21T08:09:55;31.00;94.10
1468;DHT22;727;48.892;9.544;2023-08-21T08:12:22;31.00;93.70
1468;DHT22;727;48.892;9.544;2023-08-21T08:14:50;31.50;93.20
1468;DHT22;727;48.892;9.544;2023-08-21T08:17:16;31.70;92.90
1468;DHT22;727;48.892;9.544;2023-08-21T08:19:43;31.70;92.10
1468;DHT22;727;48.892;9.544;2023-08-21T08:22:10;31.60;92.30
1468;DHT22;727;48.892;9.544;2023-08-21T08:24:36;31.40;92.60
1468;DHT22;727;48.892;9.544;2023-08-21T08:27:03;31.30;92.50
1468;DHT22;727;48.892;9.544;2023-08-21T08:29:30;31.40;92.80
1468;DHT22;727;48.892;9.544;2023-08-21T08:31:58;31.30;92.40
1468;DHT22;727;48.892;9.544;2023-08-21T08:34:25;31.30;92.60
1468;DHT22;727;48.892;9.544;2023-08-21T08:36:52;31.40;93.00
1468;DHT22;727;48.892;9.544;2023-08-21T08:39:18;31.60;92.60
1468;DHT22;727;48.892;9.544;2023-08-21T08:41:53;31.70;92.00
1468;DHT22;727;48.892;9.544;2023-08-21T08:44:20;32.10;91.60
1468;DHT22;727;48.892;9.544;2023-08-21T08:46:51;32.10;91.40
1468;DHT22;727;48.892;9.544;2023-08-21T08:49:21;32.20;91.50
1468;DHT22;727;48.892;9.544;2023-08-21T08:51:49;32.50;90.80
1468;DHT22;727;48.892;9.544;2023-08-21T08:54:17;32.70;91.10
1468;DHT22;727;48.892;9.544;2023-08-21T08:56:44;33.20;89.60
1468;DHT22;727;48.892;9.544;2023-08-21T08:59:11;33.20;89.50
1468;DHT22;727;48.892;9.544;2023-08-21T09:01:40;33.50;88.70
1468;DHT22;727;48.892;9.544;2023-08-21T09:04:07;33.60;87.60
1468;DHT22;727;48.892;9.544;2023-08-21T09:06:35;33.50;87.60
1468;DHT22;727;48.892;9.544;2023-08-21T09:09:02;33.60;86.50
1468;DHT22;727;48.892;9.544;2023-08-21T09:11:30;33.70;88.10
1468;DHT22;727;48.892;9.544;2023-08-21T09:13:58;34.00;86.20
1468;DHT22;727;48.892;9.544;2023-08-21T09:16:25;34.00;86.20
1468;DHT22;727;48.892;9.544;2023-08-21T09:18:54;33.80;87.30
1468;DHT22;727;48.892;9.544;2023-08-21T09:21:23;33.80;87.40
1468;DHT22;727;48.892;9.544;2023-08-21T09:23:57;33.50;86.90
1468;DHT22;727;48.892;9.544;2023-08-21T09:26:24;33.30;87.90
1468;DHT22;727;48.892;9.544;2023-08-21T09:28:52;32.90;89.50
1468;DHT22;727;48.892;9.544;2023-08-21T09:31:21;33.00;89.30
1468;DHT22;727;48.892;9.544;2023-08-21T09:33:55;33.00;88.30
1468;DHT22;727;48.892;9.544;2023-08-21T09:36:22;33.30;86.90
1468;DHT22;727;48.892;9.544;2023-08-21T09:38:52;33.40;85.70
1468;DHT22;727;48.892;9.544;2023-08-21T09:41:23;33.50;85.10
1468;DHT22;727;48.892;9.544;2023-08-21T09:43:50;33.70;85.30
1468;DHT22;727;48.892;9.544;2023-08-21T09:46:17;34.10;82.50
1468;DHT22;727;48.892;9.544;2023-08-21T09:48:49;34.00;81.60
1468;DHT22;727;48.892;9.544;2023-08-21T09:51:18;34.30;81.50
1468;DHT22;727;48.892;9.544;2023-08-21T09:53:44;34.80;79.70
1468;DHT22;727;48.892;9.544;2023-08-21T09:56:13;35.00;78.60
1468;DHT22;727;48.892;9.544;2023-08-21T09:58:40;35.00;78.60
1468;DHT22;727;48.892;9.544;2023-08-21T10:01:08;35.20;78.40
1468;DHT22;727;48.892;9.544;2023-08-21T10:03:39;35.30;79.40
1468;DHT22;727;48.892;9.544;2023-08-21T10:06:08;35.30;75.50
1468;DHT22;727;48.892;9.544;2023-08-21T10:08:37;35.00;76.20
1468;DHT22;727;48.892;9.544;2023-08-21T10:11:06;34.60;77.30
1468;DHT22;727;48.892;9.544;2023-08-21T10:13:36;34.60;77.20
1468;DHT22;727;48.892;9.544;2023-08-21T10:16:04;34.80;78.50
1468;DHT22;727;48.892;9.544;2023-08-21T10:18:33;35.40;78.30
1468;DHT22;727;48.892;9.544;2023-08-21T10:21:11;35.50;75.50
1468;DHT22;727;48.892;9.544;2023-08-21T10:23:39;35.80;75.10
1468;DHT22;727;48.892;9.544;2023-08-21T10:26:07;36.10;72.80
1468;DHT22;727;48.892;9.544;2023-08-21T10:28:51;35.90;73.00
1468;DHT22;727;48.892;9.544;2023-08-21T10:31:31;35.80;72.90
1468;DHT22;727;48.892;9.544;2023-08-21T10:33:59;35.80;72.50
1468;DHT22;727;48.892;9.544;2023-08-21T10:37:03;35.90;73.30
1468;DHT22;727;48.892;9.544;2023-08-21T10:39:31;36.30;72.30
1468;DHT22;727;48.892;9.544;2023-08-21T10:42:01;36.50;71.80
1468;DHT22;727;48.892;9.544;2023-08-21T10:44:37;36.40;71.00
1468;DHT22;727;48.892;9.544;2023-08-21T10:47:14;36.20;71.50
1468;DHT22;727;48.892;9.544;2023-08-21T10:49:42;36.30;72.70
1468;DHT22;727;48.892;9.544;2023-08-21T10:52:09;36.40;70.40
1468;DHT22;727;48.892;9.544;2023-08-21T10:54:44;36.40;69.20
1468;DHT22;727;48.892;9.544;2023-08-21T10:57:10;36.20;72.30
1468;DHT22;727;48.892;9.544;2023-08-21T10:59:44;36.40;70.70
1468;DHT22;727;48.892;9.544;2023-08-21T11:02:15;36.40;70.00
1468;DHT22;727;48.892;9.544;2023-08-21T11:04:41;36.60;68.00
1468;DHT22;727;48.892;9.544;2023-08-21T11:07:09;36.40;68.70
1468;DHT22;727;48.892;9.544;2023-08-21T11:09:36;36.10;69.70
1468;DHT22;727;48.892;9.544;2023-08-21T11:12:09;35.50;69.50
1468;DHT22;727;48.892;9.544;2023-08-21T11:14:36;35.80;69.90
1468;DHT22;727;48.892;9.544;2023-08-21T11:17:05;36.00;71.10
1468;DHT22;727;48.892;9.544;2023-08-21T11:19:32;36.40;68.90
1468;DHT22;727;48.892;9.544;2023-08-21T11:21:59;36.50;67.50
1468;DHT22;727;48.892;9.544;2023-08-21T11:24:40;36.20;67.70
1468;DHT22;727;48.892;9.544;2023-08-21T11:27:07;35.90;69.80
1468;DHT22;727;48.892;9.544;2023-08-21T11:29:37;36.00;66.90
1468;DHT22;727;48.892;9.544;2023-08-21T11:32:08;36.20;68.30
1468;DHT22;727;48.892;9.544;2023-08-21T11:34:35;36.40;66.60
1468;DHT22;727;48.892;9.544;2023-08-21T11:37:03;36.40;65.70
1468;DHT22;727;48.892;9.544;2023-08-21T11:39:39;36.60;64.30
1468;DHT22;727;48.892;9.544;2023-08-21T11:42:09;36.70;68.30
1468;DHT22;727;48.892;9.544;2023-08-21T11:44:43;36.90;64.30
1468;DHT22;727;48.892;9.544;2023-08-21T11:47:13;36.70;63.70
1468;DHT22;727;48.892;9.544;2023-08-21T11:49:41;36.70;65.20
1468;DHT22;727;48.892;9.544;2023-08-21T11:52:10;36.90;66.90
1468;DHT22;727;48.892;9.544;2023-08-21T11:54:41;37.10;61.90
1468;DHT22;727;48.892;9.544;2023-08-21T11:57:12;37.10;62.20
1468;DHT22;727;48.892;9.544;2023-08-21T11:59:40;37.30;61.70
1468;DHT22;727;48.892;9.544;2023-08-21T12:02:10;37.70;62.60
1468;DHT22;727;48.892;9.544;2023-08-21T12:04:38;37.90;63.10
1468;DHT22;727;48.892;9.544;2023-08-21T12:07:05;37.80;61.30
1468;DHT22;727;48.892;9.544;2023-08-21T12:09:32;38.00;61.70
1468;DHT22;727;48.892;9.544;2023-08-21T12:11:59;37.90;59.90
1468;DHT22;727;48.892;9.544;2023-08-21T12:14:28;37.80;59.80
1468;DHT22;727;48.892;9.544;2023-08-21T12:16:55;37.40;60.10
1468;DHT22;727;48.892;9.544;2023-08-21T12:19:22;37.40;60.90
1468;DHT22;727;48.892;9.544;2023-08-21T12:21:51;37.20;61.80
1468;DHT22;727;48.892;9.544;2023-08-21T12:24:17;37.40;60.90
1468;DHT22;727;48.892;9.544;2023-08-21T12:26:45;37.80;59.50
1468;DHT22;727;48.892;9.544;2023-08-21T12:29:11;37.80;59.60
1468;DHT22;727;48.892;9.544;2023-08-21T12:31:38;38.10;59.10
1468;DHT22;727;48.892;9.544;2023-08-21T12:34:05;38.10;58.30
1468;DHT22;727;48.892;9.544;2023-08-21T12:36:34;38.20;58.20
1468;DHT22;727;48.892;9.544;2023-08-21T12:39:04;38.20;57.40
1468;DHT22;727;48.892;9.544;2023-08-21T12:41:31;38.10;57.90
1468;DHT22;727;48.892;9.544;2023-08-21T12:43:58;37.90;58.20
1468;DHT22;727;48.892;9.544;2023-08-21T12:46:25;37.90;57.80
1468;DHT22;727;48.892;9.544;2023-08-21T12:48:52;37.90;59.40
1468;DHT22;727;48.892;9.544;2023-08-21T12:51:20;37.90;59.00
1468;DHT22;727;48.892;9.544;2023-08-21T12:53:46;37.90;61.00
1468;DHT22;727;48.892;9.544;2023-08-21T12:56:16;38.00;58.60
1468;DHT22;727;48.892;9.544;2023-08-21T12:58:42;37.90;57.60
1468;DHT22;727;48.892;9.544;2023-08-21T13:01:09;37.40;58.40
1468;DHT22;727;48.892;9.544;2023-08-21T13:03:36;37.70;58.70
1468;DHT22;727;48.892;9.544;2023-08-21T13:06:03;37.90;57.10
1468;DHT22;727;48.892;9.544;2023-08-21T13:08:29;37.70;57.80
1468;DHT22;727;48.892;9.544;2023-08-21T13:10:56;37.60;57.90
1468;DHT22;727;48.892;9.544;2023-08-21T13:13:24;37.50;58.60
1468;DHT22;727;48.892;9.544;2023-08-21T13:15:51;37.30;60.10
1468;DHT22;727;48.892;9.544;2023-08-21T13:18:20;37.30;57.70
1468;DHT22;727;48.892;9.544;2023-08-21T13:20:47;37.30;58.00
1468;DHT22;727;48.892;9.544;2023-08-21T13:23:13;37.30;59.30
1468;DHT22;727;48.892;9.544;2023-08-21T13:25:40;37.50;58.90
1468;DHT22;727;48.892;9.544;2023-08-21T13:28:09;37.70;56.90
1468;DHT22;727;48.892;9.544;2023-08-21T13:30:37;37.30;56.50
1468;DHT22;727;48.892;9.544;2023-08-21T13:33:04;36.90;58.30
1468;DHT22;727;48.892;9.544;2023-08-21T13:35:32;36.90;57.10
1468;DHT22;727;48.892;9.544;2023-08-21T13:37:58;36.70;59.20
1468;DHT22;727;48.892;9.544;2023-08-21T13:40:25;36.30;60.40
1468;DHT22;727;48.892;9.544;2023-08-21T13:42:52;36.20;64.00
1468;DHT22;727;48.892;9.544;2023-08-21T13:45:20;36.00;63.60
1468;DHT22;727;48.892;9.544;2023-08-21T13:47:49;35.70;65.50
1468;DHT22;727;48.892;9.544;2023-08-21T13:50:17;35.60;66.60
1468;DHT22;727;48.892;9.544;2023-08-21T13:52:46;35.80;65.80
1468;DHT22;727;48.892;9.544;2023-08-21T13:55:14;36.10;64.30
1468;DHT22;727;48.892;9.544;2023-08-21T13:57:41;36.20;65.50
1468;DHT22;727;48.892;9.544;2023-08-21T14:00:09;36.30;62.60
1468;DHT22;727;48.892;9.544;2023-08-21T14:02:38;36.40;60.70
1468;DHT22;727;48.892;9.544;2023-08-21T14:05:08;36.50;62.60
1468;DHT22;727;48.892;9.544;2023-08-21T14:07:36;36.30;60.70
1468;DHT22;727;48.892;9.544;2023-08-21T14:10:03;36.30;62.40
1468;DHT22;727;48.892;9.544;2023-08-21T14:12:31;36.10;62.00
1468;DHT22;727;48.892;9.544;2023-08-21T14:14:58;36.30;59.30
1468;DHT22;727;48.892;9.544;2023-08-21T14:17:26;36.20;59.70
1468;DHT22;727;48.892;9.544;2023-08-21T14:19:53;35.90;59.00
1468;DHT22;727;48.892;9.544;2023-08-21T14:22:22;35.70;60.70
1468;DHT22;727;48.892;9.544;2023-08-21T14:24:49;35.70;60.20
1468;DHT22;727;48.892;9.544;2023-08-21T14:27:16;35.90;63.50
1468;DHT22;727;48.892;9.544;2023-08-21T14:29:43;36.10;59.20
1468;DHT22;727;48.892;9.544;2023-08-21T14:32:10;36.00;58.70
1468;DHT22;727;48.892;9.544;2023-08-21T14:34:37;35.90;59.30
1468;DHT22;727;48.892;9.544;2023-08-21T14:37:04;35.90;61.10
1468;DHT22;727;48.892;9.544;2023-08-21T14:39:32;35.90;62.70
1468;DHT22;727;48.892;9.544;2023-08-21T14:41:59;35.90;61.30
1468;DHT22;727;48.892;9.544;2023-08-21T14:44:27;35.80;59.70
1468;DHT22;727;48.892;9.544;2023-08-21T14:46:54;35.90;60.80
1468;DHT22;727;48.892;9.544;2023-08-21T14:49:21;35.90;61.00
1468;DHT22;727;48.892;9.544;2023-08-21T14:51:48;35.80;58.40
1468;DHT22;727;48.892;9.544;2023-08-21T14:54:15;35.50;62.30
1468;DHT22;727;48.892;9.544;2023-08-21T14:56:43;35.50;59.50
1468;DHT22;727;48.892;9.544;2023-08-21T14:59:10;35.50;59.20
1468;DHT22;727;48.892;9.544;2023-08-21T15:01:37;35.50;60.00
1468;DHT22;727;48.892;9.544;2023-08-21T15:04:05;35.30;60.40
1468;DHT22;727;48.892;9.544;2023-08-21T15:06:32;35.30;60.90
1468;DHT22;727;48.892;9.544;2023-08-21T15:08:58;35.20;58.40
1468;DHT22;727;48.892;9.544;2023-08-21T15:11:25;35.30;58.40
1468;DHT22;727;48.892;9.544;2023-08-21T15:13:54;35.30;61.10
1468;DHT22;727;48.892;9.544;2023-08-21T15:16:20;35.10;60.00
1468;DHT22;727;48.892;9.544;2023-08-21T15:18:47;34.90;61.10
1468;DHT22;727;48.892;9.544;2023-08-21T15:21:17;34.60;62.20
1468;DHT22;727;48.892;9.544;2023-08-21T15:23:45;34.70;62.90
1468;DHT22;727;48.892;9.544;2023-08-21T15:26:11;34.90;60.10
1468;DHT22;727;48.892;9.544;2023-08-21T15:28:38;34.70;62.00
1468;DHT22;727;48.892;9.544;2023-08-21T15:31:06;34.70;65.00
1468;DHT22;727;48.892;9.544;2023-08-21T15:33:34;34.70;66.10
1468;DHT22;727;48.892;9.544;2023-08-21T15:36:01;34.70;64.90
1468;DHT22;727;48.892;9.544;2023-08-21T15:38:28;34.70;64.70
1468;DHT22;727;48.892;9.544;2023-08-21T15:40:55;34.70;65.40
1468;DHT22;727;48.892;9.544;2023-08-21T15:43:22;34.60;67.20
1468;DHT22;727;48.892;9.544;2023-08-21T15:45:51;34.50;66.50
1468;DHT22;727;48.892;9.544;2023-08-21T15:48:19;34.50;65.50
1468;DHT22;727;48.892;9.544;2023-08-21T15:50:46;34.30;64.50
1468;DHT22;727;48.892;9.544;2023-08-21T15:53:13;34.00;64.60
1468;DHT22;727;48.892;9.544;2023-08-21T15:55:40;34.10;66.20
1468;DHT22;727;48.892;9.544;2023-08-21T15:58:07;33.90;67.10
1468;DHT22;727;48.892;9.544;2023-08-21T16:00:34;33.70;66.20
1468;DHT22;727;48.892;9.544;2023-08-21T16:03:01;33.60;67.10
1468;DHT22;727;48.892;9.544;2023-08-21T16:05:31;33.70;68.90
1468;DHT22;727;48.892;9.544;2023-08-21T16:07:57;33.60;66.40
1468;DHT22;727;48.892;9.544;2023-08-21T16:10:24;33.50;69.10
1468;DHT22;727;48.892;9.544;2023-08-21T16:12:51;33.40;69.30
1468;DHT22;727;48.892;9.544;2023-08-21T16:15:18;33.40;70.60
1468;DHT22;727;48.892;9.544;2023-08-21T16:17:45;33.20;69.60
1468;DHT22;727;48.892;9.544;2023-08-21T16:20:11;33.10;70.50
1468;DHT22;727;48.892;9.544;2023-08-21T16:22:42;32.90;70.40
1468;DHT22;727;48.892;9.544;2023-08-21T16:25:09;32.70;69.60